<?xml version="1.0" encoding="utf-8"?>
<gpx xmlns:xsi="http://www.w3.org/2001/XMLSchema-instance" xmlns:xsd="http://www.w3.org/2001/XMLSchema" version="1.1" creator="Shapelink.com" xmlns="http://www.topografix.com/GPX/1/1" xmlns:gpxtpx="http://www.garmin.com/xmlschemas/TrackPointExtension/v1">
  <metadata>
    <name>Löpning 5.04 km, 2018-09-11</name>
    <desc></desc>
    <author><name>Marian Moron</name></author> 
    <time>2018-09-11T19:08:42Z</time>
  </metadata>
  <trk>
    <name>Löpning 5.04 km, 2018-09-11</name>
    <trkseg>
      <trkpt lat="51.215158" lon="4.481728">
        <ele>2.1</ele>
        <time>2018-09-11T19:08:42Z</time>
      </trkpt>
      <trkpt lat="51.215059" lon="4.48169">
        <ele>2.1</ele>
        <time>2018-09-11T19:08:47Z</time>
      </trkpt>
      <trkpt lat="51.214966" lon="4.481662">
        <ele>2</ele>
        <time>2018-09-11T19:08:51Z</time>
      </trkpt>
      <trkpt lat="51.214874" lon="4.481625">
        <ele>1.9</ele>
        <time>2018-09-11T19:08:55Z</time>
      </trkpt>
      <trkpt lat="51.214786" lon="4.481584">
        <ele>1.8</ele>
        <time>2018-09-11T19:08:59Z</time>
      </trkpt>
      <trkpt lat="51.214688" lon="4.48153">
        <ele>1.5</ele>
        <time>2018-09-11T19:09:03Z</time>
      </trkpt>
      <trkpt lat="51.214594" lon="4.481459">
        <ele>1.4</ele>
        <time>2018-09-11T19:09:07Z</time>
      </trkpt>
      <trkpt lat="51.214515" lon="4.481413">
        <ele>1.3</ele>
        <time>2018-09-11T19:09:10Z</time>
      </trkpt>
      <trkpt lat="51.21442" lon="4.481355">
        <ele>1.4</ele>
        <time>2018-09-11T19:09:14Z</time>
      </trkpt>
      <trkpt lat="51.214334" lon="4.481292">
        <ele>1.6</ele>
        <time>2018-09-11T19:09:18Z</time>
      </trkpt>
      <trkpt lat="51.214243" lon="4.481228">
        <ele>2.1</ele>
        <time>2018-09-11T19:09:21Z</time>
      </trkpt>
      <trkpt lat="51.214154" lon="4.481142">
        <ele>2.6</ele>
        <time>2018-09-11T19:09:25Z</time>
      </trkpt>
      <trkpt lat="51.21408" lon="4.481082">
        <ele>3.4</ele>
        <time>2018-09-11T19:09:28Z</time>
      </trkpt>
      <trkpt lat="51.21399" lon="4.48101">
        <ele>4.3</ele>
        <time>2018-09-11T19:09:32Z</time>
      </trkpt>
      <trkpt lat="51.213908" lon="4.480942">
        <ele>5.2</ele>
        <time>2018-09-11T19:09:36Z</time>
      </trkpt>
      <trkpt lat="51.213839" lon="4.480854">
        <ele>6.2</ele>
        <time>2018-09-11T19:09:40Z</time>
      </trkpt>
      <trkpt lat="51.213761" lon="4.4808">
        <ele>7.3</ele>
        <time>2018-09-11T19:09:43Z</time>
      </trkpt>
      <trkpt lat="51.213675" lon="4.480734">
        <ele>8.2</ele>
        <time>2018-09-11T19:09:47Z</time>
      </trkpt>
      <trkpt lat="51.213579" lon="4.480755">
        <ele>8.9</ele>
        <time>2018-09-11T19:09:52Z</time>
      </trkpt>
      <trkpt lat="51.213494" lon="4.480751">
        <ele>9.3</ele>
        <time>2018-09-11T19:09:57Z</time>
      </trkpt>
      <trkpt lat="51.213415" lon="4.480609">
        <ele>9.4</ele>
        <time>2018-09-11T19:10:02Z</time>
      </trkpt>
      <trkpt lat="51.213339" lon="4.48053">
        <ele>9.2</ele>
        <time>2018-09-11T19:10:04Z</time>
      </trkpt>
      <trkpt lat="51.213238" lon="4.480425">
        <ele>8.9</ele>
        <time>2018-09-11T19:10:07Z</time>
      </trkpt>
      <trkpt lat="51.213166" lon="4.480331">
        <ele>8.4</ele>
        <time>2018-09-11T19:10:10Z</time>
      </trkpt>
      <trkpt lat="51.21308" lon="4.480246">
        <ele>7.7</ele>
        <time>2018-09-11T19:10:14Z</time>
      </trkpt>
      <trkpt lat="51.212988" lon="4.480174">
        <ele>7.1</ele>
        <time>2018-09-11T19:10:18Z</time>
      </trkpt>
      <trkpt lat="51.212979" lon="4.480042">
        <ele>6.3</ele>
        <time>2018-09-11T19:10:23Z</time>
      </trkpt>
      <trkpt lat="51.213028" lon="4.479929">
        <ele>5.5</ele>
        <time>2018-09-11T19:10:27Z</time>
      </trkpt>
      <trkpt lat="51.213045" lon="4.47978">
        <ele>4.8</ele>
        <time>2018-09-11T19:10:31Z</time>
      </trkpt>
      <trkpt lat="51.213107" lon="4.479663">
        <ele>4.3</ele>
        <time>2018-09-11T19:10:34Z</time>
      </trkpt>
      <trkpt lat="51.213151" lon="4.47953">
        <ele>3.9</ele>
        <time>2018-09-11T19:10:38Z</time>
      </trkpt>
      <trkpt lat="51.2132" lon="4.479405">
        <ele>3.7</ele>
        <time>2018-09-11T19:10:43Z</time>
      </trkpt>
      <trkpt lat="51.213235" lon="4.479275">
        <ele>3.8</ele>
        <time>2018-09-11T19:10:47Z</time>
      </trkpt>
      <trkpt lat="51.21331" lon="4.479185">
        <ele>4</ele>
        <time>2018-09-11T19:10:51Z</time>
      </trkpt>
      <trkpt lat="51.213318" lon="4.479032">
        <ele>4.3</ele>
        <time>2018-09-11T19:10:56Z</time>
      </trkpt>
      <trkpt lat="51.213369" lon="4.478911">
        <ele>4.6</ele>
        <time>2018-09-11T19:10:59Z</time>
      </trkpt>
      <trkpt lat="51.213378" lon="4.478758">
        <ele>5</ele>
        <time>2018-09-11T19:11:03Z</time>
      </trkpt>
      <trkpt lat="51.213475" lon="4.478493">
        <ele>5.5</ele>
        <time>2018-09-11T19:11:14Z</time>
      </trkpt>
      <trkpt lat="51.213482" lon="4.478359">
        <ele>6.2</ele>
        <time>2018-09-11T19:11:19Z</time>
      </trkpt>
      <trkpt lat="51.213525" lon="4.478244">
        <ele>6.9</ele>
        <time>2018-09-11T19:11:23Z</time>
      </trkpt>
      <trkpt lat="51.213626" lon="4.478236">
        <ele>7.7</ele>
        <time>2018-09-11T19:11:27Z</time>
      </trkpt>
      <trkpt lat="51.213719" lon="4.478276">
        <ele>8.5</ele>
        <time>2018-09-11T19:11:31Z</time>
      </trkpt>
      <trkpt lat="51.213811" lon="4.478255">
        <ele>9.2</ele>
        <time>2018-09-11T19:11:35Z</time>
      </trkpt>
      <trkpt lat="51.213886" lon="4.478151">
        <ele>9.5</ele>
        <time>2018-09-11T19:11:40Z</time>
      </trkpt>
      <trkpt lat="51.213936" lon="4.478027">
        <ele>9.5</ele>
        <time>2018-09-11T19:11:44Z</time>
      </trkpt>
      <trkpt lat="51.214006" lon="4.4779">
        <ele>9.5</ele>
        <time>2018-09-11T19:11:48Z</time>
      </trkpt>
      <trkpt lat="51.214091" lon="4.477871">
        <ele>9.4</ele>
        <time>2018-09-11T19:11:52Z</time>
      </trkpt>
      <trkpt lat="51.214183" lon="4.477943">
        <ele>9.1</ele>
        <time>2018-09-11T19:11:55Z</time>
      </trkpt>
      <trkpt lat="51.21426" lon="4.478015">
        <ele>8.6</ele>
        <time>2018-09-11T19:11:58Z</time>
      </trkpt>
      <trkpt lat="51.214318" lon="4.478119">
        <ele>8.1</ele>
        <time>2018-09-11T19:12:02Z</time>
      </trkpt>
      <trkpt lat="51.214411" lon="4.4782">
        <ele>7.5</ele>
        <time>2018-09-11T19:12:06Z</time>
      </trkpt>
      <trkpt lat="51.214487" lon="4.478272">
        <ele>6.7</ele>
        <time>2018-09-11T19:12:09Z</time>
      </trkpt>
      <trkpt lat="51.214574" lon="4.478263">
        <ele>5.9</ele>
        <time>2018-09-11T19:12:13Z</time>
      </trkpt>
      <trkpt lat="51.214669" lon="4.478339">
        <ele>5.2</ele>
        <time>2018-09-11T19:12:17Z</time>
      </trkpt>
      <trkpt lat="51.214751" lon="4.478409">
        <ele>4.7</ele>
        <time>2018-09-11T19:12:21Z</time>
      </trkpt>
      <trkpt lat="51.214847" lon="4.478452">
        <ele>4.4</ele>
        <time>2018-09-11T19:12:24Z</time>
      </trkpt>
      <trkpt lat="51.214938" lon="4.478504">
        <ele>4.1</ele>
        <time>2018-09-11T19:12:27Z</time>
      </trkpt>
      <trkpt lat="51.215018" lon="4.478574">
        <ele>4</ele>
        <time>2018-09-11T19:12:31Z</time>
      </trkpt>
      <trkpt lat="51.215101" lon="4.478613">
        <ele>4</ele>
        <time>2018-09-11T19:12:35Z</time>
      </trkpt>
      <trkpt lat="51.215187" lon="4.478633">
        <ele>4.1</ele>
        <time>2018-09-11T19:12:38Z</time>
      </trkpt>
      <trkpt lat="51.215281" lon="4.478628">
        <ele>4.3</ele>
        <time>2018-09-11T19:12:42Z</time>
      </trkpt>
      <trkpt lat="51.215356" lon="4.478576">
        <ele>4.5</ele>
        <time>2018-09-11T19:12:45Z</time>
      </trkpt>
      <trkpt lat="51.215437" lon="4.478498">
        <ele>4.6</ele>
        <time>2018-09-11T19:12:49Z</time>
      </trkpt>
      <trkpt lat="51.215529" lon="4.478413">
        <ele>4.9</ele>
        <time>2018-09-11T19:12:53Z</time>
      </trkpt>
      <trkpt lat="51.215625" lon="4.478399">
        <ele>5.1</ele>
        <time>2018-09-11T19:12:57Z</time>
      </trkpt>
      <trkpt lat="51.21569" lon="4.47829">
        <ele>5.2</ele>
        <time>2018-09-11T19:13:01Z</time>
      </trkpt>
      <trkpt lat="51.215723" lon="4.478164">
        <ele>5.2</ele>
        <time>2018-09-11T19:13:05Z</time>
      </trkpt>
      <trkpt lat="51.215776" lon="4.478025">
        <ele>5.1</ele>
        <time>2018-09-11T19:13:09Z</time>
      </trkpt>
      <trkpt lat="51.215842" lon="4.4779">
        <ele>4.8</ele>
        <time>2018-09-11T19:13:13Z</time>
      </trkpt>
      <trkpt lat="51.215919" lon="4.477807">
        <ele>4.5</ele>
        <time>2018-09-11T19:13:17Z</time>
      </trkpt>
      <trkpt lat="51.215989" lon="4.477723">
        <ele>4.3</ele>
        <time>2018-09-11T19:13:21Z</time>
      </trkpt>
      <trkpt lat="51.216073" lon="4.47764">
        <ele>3.9</ele>
        <time>2018-09-11T19:13:25Z</time>
      </trkpt>
      <trkpt lat="51.216156" lon="4.47759">
        <ele>3.5</ele>
        <time>2018-09-11T19:13:29Z</time>
      </trkpt>
      <trkpt lat="51.216271" lon="4.477601">
        <ele>3.4</ele>
        <time>2018-09-11T19:13:34Z</time>
      </trkpt>
      <trkpt lat="51.216358" lon="4.477601">
        <ele>3.4</ele>
        <time>2018-09-11T19:13:37Z</time>
      </trkpt>
      <trkpt lat="51.216456" lon="4.477577">
        <ele>3.6</ele>
        <time>2018-09-11T19:13:41Z</time>
      </trkpt>
      <trkpt lat="51.216546" lon="4.477573">
        <ele>4</ele>
        <time>2018-09-11T19:13:45Z</time>
      </trkpt>
      <trkpt lat="51.216641" lon="4.477564">
        <ele>4.6</ele>
        <time>2018-09-11T19:13:49Z</time>
      </trkpt>
      <trkpt lat="51.216734" lon="4.477561">
        <ele>5.5</ele>
        <time>2018-09-11T19:13:53Z</time>
      </trkpt>
      <trkpt lat="51.216825" lon="4.477582">
        <ele>6.4</ele>
        <time>2018-09-11T19:13:58Z</time>
      </trkpt>
      <trkpt lat="51.21693" lon="4.477556">
        <ele>7.1</ele>
        <time>2018-09-11T19:14:03Z</time>
      </trkpt>
      <trkpt lat="51.217012" lon="4.477532">
        <ele>7.7</ele>
        <time>2018-09-11T19:14:06Z</time>
      </trkpt>
      <trkpt lat="51.217068" lon="4.477417">
        <ele>8.3</ele>
        <time>2018-09-11T19:14:10Z</time>
      </trkpt>
      <trkpt lat="51.217077" lon="4.477284">
        <ele>8.7</ele>
        <time>2018-09-11T19:14:14Z</time>
      </trkpt>
      <trkpt lat="51.217116" lon="4.477122">
        <ele>8.8</ele>
        <time>2018-09-11T19:14:18Z</time>
      </trkpt>
      <trkpt lat="51.21711" lon="4.476957">
        <ele>8.6</ele>
        <time>2018-09-11T19:14:22Z</time>
      </trkpt>
      <trkpt lat="51.217112" lon="4.476795">
        <ele>8.2</ele>
        <time>2018-09-11T19:14:28Z</time>
      </trkpt>
      <trkpt lat="51.217141" lon="4.47667">
        <ele>7.7</ele>
        <time>2018-09-11T19:14:33Z</time>
      </trkpt>
      <trkpt lat="51.217174" lon="4.476531">
        <ele>7.1</ele>
        <time>2018-09-11T19:14:37Z</time>
      </trkpt>
      <trkpt lat="51.217157" lon="4.476387">
        <ele>6.4</ele>
        <time>2018-09-11T19:14:40Z</time>
      </trkpt>
      <trkpt lat="51.217134" lon="4.476251">
        <ele>5.7</ele>
        <time>2018-09-11T19:14:44Z</time>
      </trkpt>
      <trkpt lat="51.217173" lon="4.476101">
        <ele>5.4</ele>
        <time>2018-09-11T19:14:47Z</time>
      </trkpt>
      <trkpt lat="51.2172" lon="4.475959">
        <ele>5.1</ele>
        <time>2018-09-11T19:14:50Z</time>
      </trkpt>
      <trkpt lat="51.217205" lon="4.475797">
        <ele>5</ele>
        <time>2018-09-11T19:14:54Z</time>
      </trkpt>
      <trkpt lat="51.217174" lon="4.475632">
        <ele>5</ele>
        <time>2018-09-11T19:14:58Z</time>
      </trkpt>
      <trkpt lat="51.217173" lon="4.475484">
        <ele>5.3</ele>
        <time>2018-09-11T19:15:02Z</time>
      </trkpt>
      <trkpt lat="51.217218" lon="4.475351">
        <ele>5.6</ele>
        <time>2018-09-11T19:15:06Z</time>
      </trkpt>
      <trkpt lat="51.217225" lon="4.475219">
        <ele>6.1</ele>
        <time>2018-09-11T19:15:09Z</time>
      </trkpt>
      <trkpt lat="51.217248" lon="4.475043">
        <ele>6.4</ele>
        <time>2018-09-11T19:15:13Z</time>
      </trkpt>
      <trkpt lat="51.21726" lon="4.474906">
        <ele>6.6</ele>
        <time>2018-09-11T19:15:17Z</time>
      </trkpt>
      <trkpt lat="51.217255" lon="4.474776">
        <ele>6.9</ele>
        <time>2018-09-11T19:15:20Z</time>
      </trkpt>
      <trkpt lat="51.217263" lon="4.474608">
        <ele>7.1</ele>
        <time>2018-09-11T19:15:25Z</time>
      </trkpt>
      <trkpt lat="51.217273" lon="4.47445">
        <ele>7.1</ele>
        <time>2018-09-11T19:15:29Z</time>
      </trkpt>
      <trkpt lat="51.217289" lon="4.474287">
        <ele>7.1</ele>
        <time>2018-09-11T19:15:34Z</time>
      </trkpt>
      <trkpt lat="51.217267" lon="4.474144">
        <ele>7</ele>
        <time>2018-09-11T19:15:38Z</time>
      </trkpt>
      <trkpt lat="51.217237" lon="4.474023">
        <ele>6.8</ele>
        <time>2018-09-11T19:15:42Z</time>
      </trkpt>
      <trkpt lat="51.217279" lon="4.473877">
        <ele>6.6</ele>
        <time>2018-09-11T19:15:45Z</time>
      </trkpt>
      <trkpt lat="51.217309" lon="4.473756">
        <ele>6.5</ele>
        <time>2018-09-11T19:15:48Z</time>
      </trkpt>
      <trkpt lat="51.217325" lon="4.473624">
        <ele>6.3</ele>
        <time>2018-09-11T19:15:51Z</time>
      </trkpt>
      <trkpt lat="51.217351" lon="4.473473">
        <ele>6.2</ele>
        <time>2018-09-11T19:15:55Z</time>
      </trkpt>
      <trkpt lat="51.217363" lon="4.473319">
        <ele>6.2</ele>
        <time>2018-09-11T19:15:59Z</time>
      </trkpt>
      <trkpt lat="51.217391" lon="4.473183">
        <ele>6.2</ele>
        <time>2018-09-11T19:16:03Z</time>
      </trkpt>
      <trkpt lat="51.217427" lon="4.47305">
        <ele>6.3</ele>
        <time>2018-09-11T19:16:07Z</time>
      </trkpt>
      <trkpt lat="51.217484" lon="4.472933">
        <ele>6.5</ele>
        <time>2018-09-11T19:16:10Z</time>
      </trkpt>
      <trkpt lat="51.217482" lon="4.47276">
        <ele>6.5</ele>
        <time>2018-09-11T19:16:14Z</time>
      </trkpt>
      <trkpt lat="51.217525" lon="4.472639">
        <ele>6.6</ele>
        <time>2018-09-11T19:16:18Z</time>
      </trkpt>
      <trkpt lat="51.217624" lon="4.472627">
        <ele>6.7</ele>
        <time>2018-09-11T19:16:22Z</time>
      </trkpt>
      <trkpt lat="51.217702" lon="4.47256">
        <ele>6.7</ele>
        <time>2018-09-11T19:16:26Z</time>
      </trkpt>
      <trkpt lat="51.217797" lon="4.472575">
        <ele>6.7</ele>
        <time>2018-09-11T19:16:30Z</time>
      </trkpt>
      <trkpt lat="51.217894" lon="4.472591">
        <ele>6.6</ele>
        <time>2018-09-11T19:16:34Z</time>
      </trkpt>
      <trkpt lat="51.217977" lon="4.472632">
        <ele>6.6</ele>
        <time>2018-09-11T19:16:38Z</time>
      </trkpt>
      <trkpt lat="51.218072" lon="4.472662">
        <ele>6.5</ele>
        <time>2018-09-11T19:16:42Z</time>
      </trkpt>
      <trkpt lat="51.218158" lon="4.472689">
        <ele>6.5</ele>
        <time>2018-09-11T19:16:46Z</time>
      </trkpt>
      <trkpt lat="51.218239" lon="4.472674">
        <ele>6.2</ele>
        <time>2018-09-11T19:16:50Z</time>
      </trkpt>
      <trkpt lat="51.218329" lon="4.472673">
        <ele>5.9</ele>
        <time>2018-09-11T19:16:55Z</time>
      </trkpt>
      <trkpt lat="51.218364" lon="4.472555">
        <ele>5.8</ele>
        <time>2018-09-11T19:16:59Z</time>
      </trkpt>
      <trkpt lat="51.218393" lon="4.472401">
        <ele>5.7</ele>
        <time>2018-09-11T19:17:03Z</time>
      </trkpt>
      <trkpt lat="51.218425" lon="4.472272">
        <ele>5.8</ele>
        <time>2018-09-11T19:17:07Z</time>
      </trkpt>
      <trkpt lat="51.21853" lon="4.472297">
        <ele>5.9</ele>
        <time>2018-09-11T19:17:12Z</time>
      </trkpt>
      <trkpt lat="51.218615" lon="4.472337">
        <ele>6</ele>
        <time>2018-09-11T19:17:16Z</time>
      </trkpt>
      <trkpt lat="51.218714" lon="4.472378">
        <ele>6.2</ele>
        <time>2018-09-11T19:17:20Z</time>
      </trkpt>
      <trkpt lat="51.218797" lon="4.472461">
        <ele>6.3</ele>
        <time>2018-09-11T19:17:24Z</time>
      </trkpt>
      <trkpt lat="51.218889" lon="4.472551">
        <ele>6.3</ele>
        <time>2018-09-11T19:17:30Z</time>
      </trkpt>
      <trkpt lat="51.218958" lon="4.472619">
        <ele>6.2</ele>
        <time>2018-09-11T19:17:34Z</time>
      </trkpt>
      <trkpt lat="51.219055" lon="4.472665">
        <ele>6.1</ele>
        <time>2018-09-11T19:17:37Z</time>
      </trkpt>
      <trkpt lat="51.21916" lon="4.472667">
        <ele>5.9</ele>
        <time>2018-09-11T19:17:40Z</time>
      </trkpt>
      <trkpt lat="51.219205" lon="4.472782">
        <ele>5.6</ele>
        <time>2018-09-11T19:18:00Z</time>
      </trkpt>
      <trkpt lat="51.2192" lon="4.472935">
        <ele>5.4</ele>
        <time>2018-09-11T19:18:05Z</time>
      </trkpt>
      <trkpt lat="51.2192" lon="4.473094">
        <ele>5</ele>
        <time>2018-09-11T19:18:09Z</time>
      </trkpt>
      <trkpt lat="51.219168" lon="4.473213">
        <ele>4.6</ele>
        <time>2018-09-11T19:18:12Z</time>
      </trkpt>
      <trkpt lat="51.219135" lon="4.473353">
        <ele>4.3</ele>
        <time>2018-09-11T19:18:16Z</time>
      </trkpt>
      <trkpt lat="51.219118" lon="4.473527">
        <ele>4</ele>
        <time>2018-09-11T19:18:20Z</time>
      </trkpt>
      <trkpt lat="51.219086" lon="4.473656">
        <ele>3.7</ele>
        <time>2018-09-11T19:18:23Z</time>
      </trkpt>
      <trkpt lat="51.219058" lon="4.47378">
        <ele>3.5</ele>
        <time>2018-09-11T19:18:26Z</time>
      </trkpt>
      <trkpt lat="51.21903" lon="4.473915">
        <ele>3.5</ele>
        <time>2018-09-11T19:18:30Z</time>
      </trkpt>
      <trkpt lat="51.219032" lon="4.474051">
        <ele>3.5</ele>
        <time>2018-09-11T19:18:33Z</time>
      </trkpt>
      <trkpt lat="51.219021" lon="4.474209">
        <ele>3.5</ele>
        <time>2018-09-11T19:18:37Z</time>
      </trkpt>
      <trkpt lat="51.218985" lon="4.474358">
        <ele>3.6</ele>
        <time>2018-09-11T19:18:41Z</time>
      </trkpt>
      <trkpt lat="51.218954" lon="4.474522">
        <ele>3.7</ele>
        <time>2018-09-11T19:18:45Z</time>
      </trkpt>
      <trkpt lat="51.218929" lon="4.474671">
        <ele>3.9</ele>
        <time>2018-09-11T19:18:49Z</time>
      </trkpt>
      <trkpt lat="51.218898" lon="4.474802">
        <ele>4.1</ele>
        <time>2018-09-11T19:18:52Z</time>
      </trkpt>
      <trkpt lat="51.218883" lon="4.474932">
        <ele>4.3</ele>
        <time>2018-09-11T19:18:55Z</time>
      </trkpt>
      <trkpt lat="51.21885" lon="4.475061">
        <ele>4.4</ele>
        <time>2018-09-11T19:18:58Z</time>
      </trkpt>
      <trkpt lat="51.218831" lon="4.475218">
        <ele>4.5</ele>
        <time>2018-09-11T19:19:02Z</time>
      </trkpt>
      <trkpt lat="51.218817" lon="4.475377">
        <ele>4.5</ele>
        <time>2018-09-11T19:19:06Z</time>
      </trkpt>
      <trkpt lat="51.218803" lon="4.475519">
        <ele>4.6</ele>
        <time>2018-09-11T19:19:10Z</time>
      </trkpt>
      <trkpt lat="51.218803" lon="4.47565">
        <ele>4.7</ele>
        <time>2018-09-11T19:19:13Z</time>
      </trkpt>
      <trkpt lat="51.21879" lon="4.475784">
        <ele>4.8</ele>
        <time>2018-09-11T19:19:16Z</time>
      </trkpt>
      <trkpt lat="51.218779" lon="4.475925">
        <ele>4.8</ele>
        <time>2018-09-11T19:19:19Z</time>
      </trkpt>
      <trkpt lat="51.218757" lon="4.47605">
        <ele>4.8</ele>
        <time>2018-09-11T19:19:22Z</time>
      </trkpt>
      <trkpt lat="51.218756" lon="4.476201">
        <ele>4.7</ele>
        <time>2018-09-11T19:19:26Z</time>
      </trkpt>
      <trkpt lat="51.218721" lon="4.476368">
        <ele>4.6</ele>
        <time>2018-09-11T19:19:30Z</time>
      </trkpt>
      <trkpt lat="51.218728" lon="4.476518">
        <ele>4.6</ele>
        <time>2018-09-11T19:19:34Z</time>
      </trkpt>
      <trkpt lat="51.21872" lon="4.476648">
        <ele>4.7</ele>
        <time>2018-09-11T19:19:38Z</time>
      </trkpt>
      <trkpt lat="51.218716" lon="4.476779">
        <ele>4.9</ele>
        <time>2018-09-11T19:19:42Z</time>
      </trkpt>
      <trkpt lat="51.218701" lon="4.476922">
        <ele>5.1</ele>
        <time>2018-09-11T19:19:46Z</time>
      </trkpt>
      <trkpt lat="51.218697" lon="4.477099">
        <ele>5.4</ele>
        <time>2018-09-11T19:19:50Z</time>
      </trkpt>
      <trkpt lat="51.218724" lon="4.477258">
        <ele>5.6</ele>
        <time>2018-09-11T19:19:54Z</time>
      </trkpt>
      <trkpt lat="51.218743" lon="4.477423">
        <ele>5.9</ele>
        <time>2018-09-11T19:19:58Z</time>
      </trkpt>
      <trkpt lat="51.218783" lon="4.477574">
        <ele>6.4</ele>
        <time>2018-09-11T19:20:02Z</time>
      </trkpt>
      <trkpt lat="51.218821" lon="4.477717">
        <ele>6.8</ele>
        <time>2018-09-11T19:20:06Z</time>
      </trkpt>
      <trkpt lat="51.218877" lon="4.477837">
        <ele>7.3</ele>
        <time>2018-09-11T19:20:10Z</time>
      </trkpt>
      <trkpt lat="51.21892" lon="4.477983">
        <ele>7.6</ele>
        <time>2018-09-11T19:20:14Z</time>
      </trkpt>
      <trkpt lat="51.218956" lon="4.478136">
        <ele>7.9</ele>
        <time>2018-09-11T19:20:18Z</time>
      </trkpt>
      <trkpt lat="51.218972" lon="4.478291">
        <ele>8.1</ele>
        <time>2018-09-11T19:20:22Z</time>
      </trkpt>
      <trkpt lat="51.218998" lon="4.478446">
        <ele>8.2</ele>
        <time>2018-09-11T19:20:26Z</time>
      </trkpt>
      <trkpt lat="51.219024" lon="4.478576">
        <ele>8.3</ele>
        <time>2018-09-11T19:20:30Z</time>
      </trkpt>
      <trkpt lat="51.219077" lon="4.478704">
        <ele>8.3</ele>
        <time>2018-09-11T19:20:33Z</time>
      </trkpt>
      <trkpt lat="51.21912" lon="4.478815">
        <ele>8.3</ele>
        <time>2018-09-11T19:20:36Z</time>
      </trkpt>
      <trkpt lat="51.219196" lon="4.47891">
        <ele>8.3</ele>
        <time>2018-09-11T19:20:39Z</time>
      </trkpt>
      <trkpt lat="51.219253" lon="4.479007">
        <ele>8.3</ele>
        <time>2018-09-11T19:20:42Z</time>
      </trkpt>
      <trkpt lat="51.219258" lon="4.479144">
        <ele>8.3</ele>
        <time>2018-09-11T19:20:46Z</time>
      </trkpt>
      <trkpt lat="51.219254" lon="4.479278">
        <ele>8.3</ele>
        <time>2018-09-11T19:20:49Z</time>
      </trkpt>
      <trkpt lat="51.219265" lon="4.47942">
        <ele>8.4</ele>
        <time>2018-09-11T19:20:52Z</time>
      </trkpt>
      <trkpt lat="51.219284" lon="4.47958">
        <ele>8.5</ele>
        <time>2018-09-11T19:20:56Z</time>
      </trkpt>
      <trkpt lat="51.2193" lon="4.479724">
        <ele>8.5</ele>
        <time>2018-09-11T19:21:00Z</time>
      </trkpt>
      <trkpt lat="51.219287" lon="4.479866">
        <ele>8.6</ele>
        <time>2018-09-11T19:21:04Z</time>
      </trkpt>
      <trkpt lat="51.219326" lon="4.47999">
        <ele>8.7</ele>
        <time>2018-09-11T19:21:09Z</time>
      </trkpt>
      <trkpt lat="51.219351" lon="4.480144">
        <ele>8.8</ele>
        <time>2018-09-11T19:21:13Z</time>
      </trkpt>
      <trkpt lat="51.21939" lon="4.480264">
        <ele>8.9</ele>
        <time>2018-09-11T19:21:16Z</time>
      </trkpt>
      <trkpt lat="51.219409" lon="4.480405">
        <ele>9</ele>
        <time>2018-09-11T19:21:20Z</time>
      </trkpt>
      <trkpt lat="51.219344" lon="4.480542">
        <ele>9</ele>
        <time>2018-09-11T19:21:25Z</time>
      </trkpt>
      <trkpt lat="51.219268" lon="4.480657">
        <ele>8.9</ele>
        <time>2018-09-11T19:21:28Z</time>
      </trkpt>
      <trkpt lat="51.219203" lon="4.480738">
        <ele>8.8</ele>
        <time>2018-09-11T19:21:31Z</time>
      </trkpt>
      <trkpt lat="51.219118" lon="4.480826">
        <ele>8.7</ele>
        <time>2018-09-11T19:21:35Z</time>
      </trkpt>
      <trkpt lat="51.219033" lon="4.480851">
        <ele>8.6</ele>
        <time>2018-09-11T19:21:39Z</time>
      </trkpt>
      <trkpt lat="51.21895" lon="4.480919">
        <ele>8.5</ele>
        <time>2018-09-11T19:21:43Z</time>
      </trkpt>
      <trkpt lat="51.218879" lon="4.480981">
        <ele>8.4</ele>
        <time>2018-09-11T19:21:46Z</time>
      </trkpt>
      <trkpt lat="51.218783" lon="4.481004">
        <ele>8.2</ele>
        <time>2018-09-11T19:21:50Z</time>
      </trkpt>
      <trkpt lat="51.218689" lon="4.481047">
        <ele>8</ele>
        <time>2018-09-11T19:21:54Z</time>
      </trkpt>
      <trkpt lat="51.218603" lon="4.481098">
        <ele>7.7</ele>
        <time>2018-09-11T19:21:58Z</time>
      </trkpt>
      <trkpt lat="51.21851" lon="4.481118">
        <ele>7.5</ele>
        <time>2018-09-11T19:22:02Z</time>
      </trkpt>
      <trkpt lat="51.218416" lon="4.481174">
        <ele>7.2</ele>
        <time>2018-09-11T19:22:07Z</time>
      </trkpt>
      <trkpt lat="51.218324" lon="4.481224">
        <ele>7</ele>
        <time>2018-09-11T19:22:11Z</time>
      </trkpt>
      <trkpt lat="51.218236" lon="4.481248">
        <ele>6.8</ele>
        <time>2018-09-11T19:22:15Z</time>
      </trkpt>
      <trkpt lat="51.218147" lon="4.481281">
        <ele>6.6</ele>
        <time>2018-09-11T19:22:18Z</time>
      </trkpt>
      <trkpt lat="51.218055" lon="4.481327">
        <ele>6.5</ele>
        <time>2018-09-11T19:22:22Z</time>
      </trkpt>
      <trkpt lat="51.21797" lon="4.481381">
        <ele>6.3</ele>
        <time>2018-09-11T19:22:26Z</time>
      </trkpt>
      <trkpt lat="51.217876" lon="4.481465">
        <ele>6.2</ele>
        <time>2018-09-11T19:22:30Z</time>
      </trkpt>
      <trkpt lat="51.217787" lon="4.481512">
        <ele>6.1</ele>
        <time>2018-09-11T19:22:34Z</time>
      </trkpt>
      <trkpt lat="51.217706" lon="4.481537">
        <ele>5.9</ele>
        <time>2018-09-11T19:22:38Z</time>
      </trkpt>
      <trkpt lat="51.217621" lon="4.481572">
        <ele>5.8</ele>
        <time>2018-09-11T19:22:42Z</time>
      </trkpt>
      <trkpt lat="51.217534" lon="4.481626">
        <ele>5.7</ele>
        <time>2018-09-11T19:22:46Z</time>
      </trkpt>
      <trkpt lat="51.217471" lon="4.481712">
        <ele>5.5</ele>
        <time>2018-09-11T19:22:49Z</time>
      </trkpt>
      <trkpt lat="51.217398" lon="4.481771">
        <ele>5.4</ele>
        <time>2018-09-11T19:22:52Z</time>
      </trkpt>
      <trkpt lat="51.217299" lon="4.481805">
        <ele>5.2</ele>
        <time>2018-09-11T19:22:56Z</time>
      </trkpt>
      <trkpt lat="51.217192" lon="4.481804">
        <ele>5</ele>
        <time>2018-09-11T19:23:00Z</time>
      </trkpt>
      <trkpt lat="51.217086" lon="4.481828">
        <ele>4.7</ele>
        <time>2018-09-11T19:23:04Z</time>
      </trkpt>
      <trkpt lat="51.216992" lon="4.48189">
        <ele>4.5</ele>
        <time>2018-09-11T19:23:08Z</time>
      </trkpt>
      <trkpt lat="51.216899" lon="4.481861">
        <ele>4.2</ele>
        <time>2018-09-11T19:23:12Z</time>
      </trkpt>
      <trkpt lat="51.216903" lon="4.482026">
        <ele>3.9</ele>
        <time>2018-09-11T19:23:17Z</time>
      </trkpt>
      <trkpt lat="51.216884" lon="4.482155">
        <ele>3.7</ele>
        <time>2018-09-11T19:23:22Z</time>
      </trkpt>
      <trkpt lat="51.216786" lon="4.482162">
        <ele>3.5</ele>
        <time>2018-09-11T19:23:26Z</time>
      </trkpt>
      <trkpt lat="51.216704" lon="4.482199">
        <ele>3.4</ele>
        <time>2018-09-11T19:23:30Z</time>
      </trkpt>
      <trkpt lat="51.216619" lon="4.482232">
        <ele>3.4</ele>
        <time>2018-09-11T19:23:34Z</time>
      </trkpt>
      <trkpt lat="51.216515" lon="4.482213">
        <ele>3.4</ele>
        <time>2018-09-11T19:23:38Z</time>
      </trkpt>
      <trkpt lat="51.216433" lon="4.482217">
        <ele>3.5</ele>
        <time>2018-09-11T19:23:41Z</time>
      </trkpt>
      <trkpt lat="51.216338" lon="4.482242">
        <ele>3.7</ele>
        <time>2018-09-11T19:23:45Z</time>
      </trkpt>
      <trkpt lat="51.216257" lon="4.482257">
        <ele>4.1</ele>
        <time>2018-09-11T19:23:49Z</time>
      </trkpt>
      <trkpt lat="51.216169" lon="4.482235">
        <ele>4.5</ele>
        <time>2018-09-11T19:23:53Z</time>
      </trkpt>
      <trkpt lat="51.216069" lon="4.482237">
        <ele>4.8</ele>
        <time>2018-09-11T19:23:57Z</time>
      </trkpt>
      <trkpt lat="51.215965" lon="4.482231">
        <ele>5.2</ele>
        <time>2018-09-11T19:24:02Z</time>
      </trkpt>
      <trkpt lat="51.215886" lon="4.482288">
        <ele>5.5</ele>
        <time>2018-09-11T19:24:06Z</time>
      </trkpt>
      <trkpt lat="51.21579" lon="4.482335">
        <ele>5.9</ele>
        <time>2018-09-11T19:24:10Z</time>
      </trkpt>
      <trkpt lat="51.215684" lon="4.482358">
        <ele>6.3</ele>
        <time>2018-09-11T19:24:14Z</time>
      </trkpt>
      <trkpt lat="51.215589" lon="4.482327">
        <ele>6.5</ele>
        <time>2018-09-11T19:24:18Z</time>
      </trkpt>
      <trkpt lat="51.21551" lon="4.482388">
        <ele>6.7</ele>
        <time>2018-09-11T19:24:23Z</time>
      </trkpt>
      <trkpt lat="51.215506" lon="4.482526">
        <ele>6.6</ele>
        <time>2018-09-11T19:24:26Z</time>
      </trkpt>
      <trkpt lat="51.215509" lon="4.482684">
        <ele>6.5</ele>
        <time>2018-09-11T19:24:30Z</time>
      </trkpt>
      <trkpt lat="51.215482" lon="4.482818">
        <ele>6.4</ele>
        <time>2018-09-11T19:24:34Z</time>
      </trkpt>
      <trkpt lat="51.215519" lon="4.482971">
        <ele>6.2</ele>
        <time>2018-09-11T19:24:38Z</time>
      </trkpt>
      <trkpt lat="51.215524" lon="4.483137">
        <ele>5.9</ele>
        <time>2018-09-11T19:24:42Z</time>
      </trkpt>
      <trkpt lat="51.215544" lon="4.48329">
        <ele>5.6</ele>
        <time>2018-09-11T19:24:46Z</time>
      </trkpt>
      <trkpt lat="51.215538" lon="4.483453">
        <ele>5.4</ele>
        <time>2018-09-11T19:24:50Z</time>
      </trkpt>
      <trkpt lat="51.215543" lon="4.483584">
        <ele>5.1</ele>
        <time>2018-09-11T19:24:53Z</time>
      </trkpt>
      <trkpt lat="51.215561" lon="4.483731">
        <ele>4.8</ele>
        <time>2018-09-11T19:24:57Z</time>
      </trkpt>
      <trkpt lat="51.215548" lon="4.483868">
        <ele>4.5</ele>
        <time>2018-09-11T19:25:00Z</time>
      </trkpt>
      <trkpt lat="51.215545" lon="4.484002">
        <ele>4.4</ele>
        <time>2018-09-11T19:25:03Z</time>
      </trkpt>
      <trkpt lat="51.215538" lon="4.484163">
        <ele>4.3</ele>
        <time>2018-09-11T19:25:07Z</time>
      </trkpt>
      <trkpt lat="51.215547" lon="4.484301">
        <ele>4.2</ele>
        <time>2018-09-11T19:25:11Z</time>
      </trkpt>
      <trkpt lat="51.215583" lon="4.484428">
        <ele>4.1</ele>
        <time>2018-09-11T19:25:14Z</time>
      </trkpt>
      <trkpt lat="51.215592" lon="4.48458">
        <ele>4</ele>
        <time>2018-09-11T19:25:18Z</time>
      </trkpt>
      <trkpt lat="51.215578" lon="4.48474">
        <ele>4</ele>
        <time>2018-09-11T19:25:22Z</time>
      </trkpt>
      <trkpt lat="51.215566" lon="4.484892">
        <ele>3.9</ele>
        <time>2018-09-11T19:25:26Z</time>
      </trkpt>
      <trkpt lat="51.215541" lon="4.485029">
        <ele>3.8</ele>
        <time>2018-09-11T19:25:30Z</time>
      </trkpt>
      <trkpt lat="51.215551" lon="4.485166">
        <ele>3.7</ele>
        <time>2018-09-11T19:25:33Z</time>
      </trkpt>
      <trkpt lat="51.215519" lon="4.485315">
        <ele>3.5</ele>
        <time>2018-09-11T19:25:37Z</time>
      </trkpt>
      <trkpt lat="51.215501" lon="4.485458">
        <ele>3.4</ele>
        <time>2018-09-11T19:25:41Z</time>
      </trkpt>
      <trkpt lat="51.215507" lon="4.485621">
        <ele>3.2</ele>
        <time>2018-09-11T19:25:45Z</time>
      </trkpt>
      <trkpt lat="51.215518" lon="4.485775">
        <ele>3.1</ele>
        <time>2018-09-11T19:25:49Z</time>
      </trkpt>
      <trkpt lat="51.21551" lon="4.485937">
        <ele>3</ele>
        <time>2018-09-11T19:25:53Z</time>
      </trkpt>
      <trkpt lat="51.215504" lon="4.486098">
        <ele>3</ele>
        <time>2018-09-11T19:25:57Z</time>
      </trkpt>
      <trkpt lat="51.215504" lon="4.486232">
        <ele>3.1</ele>
        <time>2018-09-11T19:26:00Z</time>
      </trkpt>
      <trkpt lat="51.215514" lon="4.486363">
        <ele>3.3</ele>
        <time>2018-09-11T19:26:03Z</time>
      </trkpt>
      <trkpt lat="51.215504" lon="4.486526">
        <ele>3.5</ele>
        <time>2018-09-11T19:26:07Z</time>
      </trkpt>
      <trkpt lat="51.215516" lon="4.486694">
        <ele>3.6</ele>
        <time>2018-09-11T19:26:11Z</time>
      </trkpt>
      <trkpt lat="51.215445" lon="4.486765">
        <ele>3.8</ele>
        <time>2018-09-11T19:26:15Z</time>
      </trkpt>
      <trkpt lat="51.215359" lon="4.486745">
        <ele>4.1</ele>
        <time>2018-09-11T19:26:19Z</time>
      </trkpt>
      <trkpt lat="51.215277" lon="4.486688">
        <ele>4.4</ele>
        <time>2018-09-11T19:26:23Z</time>
      </trkpt>
      <trkpt lat="51.215192" lon="4.486611">
        <ele>4.6</ele>
        <time>2018-09-11T19:26:27Z</time>
      </trkpt>
      <trkpt lat="51.215112" lon="4.486557">
        <ele>4.8</ele>
        <time>2018-09-11T19:26:31Z</time>
      </trkpt>
      <trkpt lat="51.215043" lon="4.486466">
        <ele>5.1</ele>
        <time>2018-09-11T19:26:35Z</time>
      </trkpt>
      <trkpt lat="51.214984" lon="4.486335">
        <ele>5.3</ele>
        <time>2018-09-11T19:26:40Z</time>
      </trkpt>
      <trkpt lat="51.214912" lon="4.486262">
        <ele>5.5</ele>
        <time>2018-09-11T19:26:44Z</time>
      </trkpt>
      <trkpt lat="51.214862" lon="4.486156">
        <ele>5.5</ele>
        <time>2018-09-11T19:26:47Z</time>
      </trkpt>
      <trkpt lat="51.214806" lon="4.486013">
        <ele>5.6</ele>
        <time>2018-09-11T19:26:51Z</time>
      </trkpt>
      <trkpt lat="51.214745" lon="4.485894">
        <ele>5.7</ele>
        <time>2018-09-11T19:26:55Z</time>
      </trkpt>
      <trkpt lat="51.214687" lon="4.48577">
        <ele>5.8</ele>
        <time>2018-09-11T19:26:59Z</time>
      </trkpt>
      <trkpt lat="51.214661" lon="4.485639">
        <ele>5.9</ele>
        <time>2018-09-11T19:27:03Z</time>
      </trkpt>
      <trkpt lat="51.214624" lon="4.485504">
        <ele>6</ele>
        <time>2018-09-11T19:27:07Z</time>
      </trkpt>
      <trkpt lat="51.214582" lon="4.485377">
        <ele>6.1</ele>
        <time>2018-09-11T19:27:11Z</time>
      </trkpt>
      <trkpt lat="51.214534" lon="4.485258">
        <ele>6.2</ele>
        <time>2018-09-11T19:27:15Z</time>
      </trkpt>
      <trkpt lat="51.214585" lon="4.485126">
        <ele>6.2</ele>
        <time>2018-09-11T19:27:20Z</time>
      </trkpt>
      <trkpt lat="51.214662" lon="4.485078">
        <ele>6.2</ele>
        <time>2018-09-11T19:27:24Z</time>
      </trkpt>
      <trkpt lat="51.21475" lon="4.485145">
        <ele>6.1</ele>
        <time>2018-09-11T19:27:28Z</time>
      </trkpt>
      <trkpt lat="51.214818" lon="4.485239">
        <ele>6</ele>
        <time>2018-09-11T19:27:32Z</time>
      </trkpt>
      <trkpt lat="51.214992" lon="4.485311">
        <ele>6</ele>
        <time>2018-09-11T19:27:43Z</time>
      </trkpt>
      <trkpt lat="51.214977" lon="4.485181">
        <ele>6</ele>
        <time>2018-09-11T19:28:41Z</time>
      </trkpt>
      <trkpt lat="51.214872" lon="4.485137">
        <ele>6</ele>
        <time>2018-09-11T19:28:45Z</time>
      </trkpt>
      <trkpt lat="51.214766" lon="4.485134">
        <ele>6.1</ele>
        <time>2018-09-11T19:28:49Z</time>
      </trkpt>
      <trkpt lat="51.214669" lon="4.485116">
        <ele>6.2</ele>
        <time>2018-09-11T19:28:53Z</time>
      </trkpt>
      <trkpt lat="51.214588" lon="4.485082">
        <ele>6.2</ele>
        <time>2018-09-11T19:28:57Z</time>
      </trkpt>
      <trkpt lat="51.214492" lon="4.485055">
        <ele>6.2</ele>
        <time>2018-09-11T19:29:01Z</time>
      </trkpt>
      <trkpt lat="51.214408" lon="4.485041">
        <ele>6.1</ele>
        <time>2018-09-11T19:29:05Z</time>
      </trkpt>
      <trkpt lat="51.214358" lon="4.484917">
        <ele>6</ele>
        <time>2018-09-11T19:29:08Z</time>
      </trkpt>
      <trkpt lat="51.214302" lon="4.484823">
        <ele>5.8</ele>
        <time>2018-09-11T19:29:11Z</time>
      </trkpt>
      <trkpt lat="51.214258" lon="4.484705">
        <ele>5.6</ele>
        <time>2018-09-11T19:29:14Z</time>
      </trkpt>
      <trkpt lat="51.214235" lon="4.484575">
        <ele>5.4</ele>
        <time>2018-09-11T19:29:17Z</time>
      </trkpt>
      <trkpt lat="51.214184" lon="4.484431">
        <ele>5.2</ele>
        <time>2018-09-11T19:29:21Z</time>
      </trkpt>
      <trkpt lat="51.214127" lon="4.484316">
        <ele>5.1</ele>
        <time>2018-09-11T19:29:24Z</time>
      </trkpt>
      <trkpt lat="51.214122" lon="4.484166">
        <ele>5</ele>
        <time>2018-09-11T19:29:28Z</time>
      </trkpt>
      <trkpt lat="51.214069" lon="4.484023">
        <ele>4.8</ele>
        <time>2018-09-11T19:29:32Z</time>
      </trkpt>
      <trkpt lat="51.214041" lon="4.483886">
        <ele>4.6</ele>
        <time>2018-09-11T19:29:36Z</time>
      </trkpt>
      <trkpt lat="51.21399" lon="4.483775">
        <ele>4.5</ele>
        <time>2018-09-11T19:29:39Z</time>
      </trkpt>
      <trkpt lat="51.2139" lon="4.48371">
        <ele>4.4</ele>
        <time>2018-09-11T19:29:42Z</time>
      </trkpt>
      <trkpt lat="51.213811" lon="4.48368">
        <ele>4.3</ele>
        <time>2018-09-11T19:29:45Z</time>
      </trkpt>
      <trkpt lat="51.213835" lon="4.483822">
        <ele>4.3</ele>
        <time>2018-09-11T19:29:51Z</time>
      </trkpt>
      <trkpt lat="51.213929" lon="4.483802">
        <ele>4.4</ele>
        <time>2018-09-11T19:29:55Z</time>
      </trkpt>
      <trkpt lat="51.21399" lon="4.483905">
        <ele>4.5</ele>
        <time>2018-09-11T19:29:59Z</time>
      </trkpt>
      <trkpt lat="51.214065" lon="4.484028">
        <ele>4.7</ele>
        <time>2018-09-11T19:30:03Z</time>
      </trkpt>
      <trkpt lat="51.21414" lon="4.484144">
        <ele>4.8</ele>
        <time>2018-09-11T19:30:07Z</time>
      </trkpt>
      <trkpt lat="51.214181" lon="4.484296">
        <ele>4.8</ele>
        <time>2018-09-11T19:30:11Z</time>
      </trkpt>
      <trkpt lat="51.214237" lon="4.48443">
        <ele>4.9</ele>
        <time>2018-09-11T19:30:15Z</time>
      </trkpt>
      <trkpt lat="51.214311" lon="4.484537">
        <ele>5.1</ele>
        <time>2018-09-11T19:30:20Z</time>
      </trkpt>
      <trkpt lat="51.214342" lon="4.484659">
        <ele>5.3</ele>
        <time>2018-09-11T19:30:23Z</time>
      </trkpt>
      <trkpt lat="51.214365" lon="4.484809">
        <ele>5.5</ele>
        <time>2018-09-11T19:30:27Z</time>
      </trkpt>
      <trkpt lat="51.214411" lon="4.484965">
        <ele>5.8</ele>
        <time>2018-09-11T19:30:31Z</time>
      </trkpt>
      <trkpt lat="51.214482" lon="4.485071">
        <ele>6</ele>
        <time>2018-09-11T19:30:36Z</time>
      </trkpt>
      <trkpt lat="51.214527" lon="4.485229">
        <ele>6.1</ele>
        <time>2018-09-11T19:30:41Z</time>
      </trkpt>
      <trkpt lat="51.214566" lon="4.485385">
        <ele>6.1</ele>
        <time>2018-09-11T19:30:45Z</time>
      </trkpt>
      <trkpt lat="51.214602" lon="4.48554">
        <ele>6</ele>
        <time>2018-09-11T19:30:49Z</time>
      </trkpt>
      <trkpt lat="51.214638" lon="4.485672">
        <ele>5.9</ele>
        <time>2018-09-11T19:30:52Z</time>
      </trkpt>
      <trkpt lat="51.214688" lon="4.485801">
        <ele>5.8</ele>
        <time>2018-09-11T19:30:56Z</time>
      </trkpt>
      <trkpt lat="51.21474" lon="4.48593">
        <ele>5.7</ele>
        <time>2018-09-11T19:31:00Z</time>
      </trkpt>
      <trkpt lat="51.214793" lon="4.48606">
        <ele>5.6</ele>
        <time>2018-09-11T19:31:04Z</time>
      </trkpt>
      <trkpt lat="51.214845" lon="4.486195">
        <ele>5.5</ele>
        <time>2018-09-11T19:31:08Z</time>
      </trkpt>
      <trkpt lat="51.214893" lon="4.486309">
        <ele>5.5</ele>
        <time>2018-09-11T19:31:11Z</time>
      </trkpt>
      <trkpt lat="51.214949" lon="4.486432">
        <ele>5.3</ele>
        <time>2018-09-11T19:31:15Z</time>
      </trkpt>
      <trkpt lat="51.215029" lon="4.486499">
        <ele>5.1</ele>
        <time>2018-09-11T19:31:19Z</time>
      </trkpt>
      <trkpt lat="51.215113" lon="4.486555">
        <ele>4.9</ele>
        <time>2018-09-11T19:31:23Z</time>
      </trkpt>
      <trkpt lat="51.215195" lon="4.486616">
        <ele>4.8</ele>
        <time>2018-09-11T19:31:27Z</time>
      </trkpt>
      <trkpt lat="51.215285" lon="4.486651">
        <ele>4.8</ele>
        <time>2018-09-11T19:31:31Z</time>
      </trkpt>
      <trkpt lat="51.215368" lon="4.486705">
        <ele>4.8</ele>
        <time>2018-09-11T19:31:35Z</time>
      </trkpt>
      <trkpt lat="51.215466" lon="4.486773">
        <ele>4.8</ele>
        <time>2018-09-11T19:31:39Z</time>
      </trkpt>
      <trkpt lat="51.215482" lon="4.486914">
        <ele>4.8</ele>
        <time>2018-09-11T19:31:43Z</time>
      </trkpt>
      <trkpt lat="51.215524" lon="4.487065">
        <ele>4.8</ele>
        <time>2018-09-11T19:31:47Z</time>
      </trkpt>
      <trkpt lat="51.215543" lon="4.487215">
        <ele>4.9</ele>
        <time>2018-09-11T19:31:51Z</time>
      </trkpt>
      <trkpt lat="51.215512" lon="4.487379">
        <ele>4.9</ele>
        <time>2018-09-11T19:31:55Z</time>
      </trkpt>
      <trkpt lat="51.21543" lon="4.487488">
        <ele>5</ele>
        <time>2018-09-11T19:31:59Z</time>
      </trkpt>
      <trkpt lat="51.215336" lon="4.487461">
        <ele>5.2</ele>
        <time>2018-09-11T19:32:03Z</time>
      </trkpt>
      <trkpt lat="51.215257" lon="4.487407">
        <ele>5.3</ele>
        <time>2018-09-11T19:32:07Z</time>
      </trkpt>
      <trkpt lat="51.215226" lon="4.487251">
        <ele>5.3</ele>
        <time>2018-09-11T19:32:12Z</time>
      </trkpt>
      <trkpt lat="51.215226" lon="4.487121">
        <ele>5.1</ele>
        <time>2018-09-11T19:32:16Z</time>
      </trkpt>
      <trkpt lat="51.21526" lon="4.486971">
        <ele>4.9</ele>
        <time>2018-09-11T19:32:20Z</time>
      </trkpt>
      <trkpt lat="51.215285" lon="4.48683">
        <ele>4.7</ele>
        <time>2018-09-11T19:32:24Z</time>
      </trkpt>
      <trkpt lat="51.215366" lon="4.486728">
        <ele>4.5</ele>
        <time>2018-09-11T19:32:28Z</time>
      </trkpt>
      <trkpt lat="51.215462" lon="4.486756">
        <ele>4.4</ele>
        <time>2018-09-11T19:32:32Z</time>
      </trkpt>
      <trkpt lat="51.215544" lon="4.486845">
        <ele>4.1</ele>
        <time>2018-09-11T19:32:37Z</time>
      </trkpt>
      <trkpt lat="51.215625" lon="4.486916">
        <ele>3.8</ele>
        <time>2018-09-11T19:32:41Z</time>
      </trkpt>
      <trkpt lat="51.215715" lon="4.486983">
        <ele>3.6</ele>
        <time>2018-09-11T19:32:45Z</time>
      </trkpt>
      <trkpt lat="51.215808" lon="4.487071">
        <ele>3.5</ele>
        <time>2018-09-11T19:32:50Z</time>
      </trkpt>
      <trkpt lat="51.215891" lon="4.487095">
        <ele>3.4</ele>
        <time>2018-09-11T19:32:53Z</time>
      </trkpt>
      <trkpt lat="51.215971" lon="4.487068">
        <ele>3.4</ele>
        <time>2018-09-11T19:32:56Z</time>
      </trkpt>
      <trkpt lat="51.216059" lon="4.487063">
        <ele>3.4</ele>
        <time>2018-09-11T19:33:00Z</time>
      </trkpt>
      <trkpt lat="51.216155" lon="4.487046">
        <ele>3.3</ele>
        <time>2018-09-11T19:33:04Z</time>
      </trkpt>
      <trkpt lat="51.21625" lon="4.487013">
        <ele>3.2</ele>
        <time>2018-09-11T19:33:08Z</time>
      </trkpt>
      <trkpt lat="51.216341" lon="4.486975">
        <ele>3.1</ele>
        <time>2018-09-11T19:33:12Z</time>
      </trkpt>
      <trkpt lat="51.216435" lon="4.486948">
        <ele>3</ele>
        <time>2018-09-11T19:33:16Z</time>
      </trkpt>
      <trkpt lat="51.216534" lon="4.486917">
        <ele>3</ele>
        <time>2018-09-11T19:33:20Z</time>
      </trkpt>
      <trkpt lat="51.216629" lon="4.486885">
        <ele>3</ele>
        <time>2018-09-11T19:33:24Z</time>
      </trkpt>
      <trkpt lat="51.216723" lon="4.486838">
        <ele>3</ele>
        <time>2018-09-11T19:33:28Z</time>
      </trkpt>
      <trkpt lat="51.216759" lon="4.486705">
        <ele>2.9</ele>
        <time>2018-09-11T19:33:32Z</time>
      </trkpt>
      <trkpt lat="51.216741" lon="4.48655">
        <ele>2.8</ele>
        <time>2018-09-11T19:33:36Z</time>
      </trkpt>
      <trkpt lat="51.216734" lon="4.486383">
        <ele>2.7</ele>
        <time>2018-09-11T19:33:40Z</time>
      </trkpt>
      <trkpt lat="51.216751" lon="4.486234">
        <ele>2.7</ele>
        <time>2018-09-11T19:33:44Z</time>
      </trkpt>
      <trkpt lat="51.216796" lon="4.486096">
        <ele>2.8</ele>
        <time>2018-09-11T19:33:48Z</time>
      </trkpt>
      <trkpt lat="51.216815" lon="4.485951">
        <ele>2.9</ele>
        <time>2018-09-11T19:33:52Z</time>
      </trkpt>
      <trkpt lat="51.216809" lon="4.485804">
        <ele>3</ele>
        <time>2018-09-11T19:33:56Z</time>
      </trkpt>
      <trkpt lat="51.216817" lon="4.485652">
        <ele>3.1</ele>
        <time>2018-09-11T19:34:00Z</time>
      </trkpt>
      <trkpt lat="51.216831" lon="4.485495">
        <ele>3.1</ele>
        <time>2018-09-11T19:34:04Z</time>
      </trkpt>
      <trkpt lat="51.216841" lon="4.48535">
        <ele>3.1</ele>
        <time>2018-09-11T19:34:08Z</time>
      </trkpt>
      <trkpt lat="51.216843" lon="4.485215">
        <ele>3</ele>
        <time>2018-09-11T19:34:13Z</time>
      </trkpt>
      <trkpt lat="51.216857" lon="4.48505">
        <ele>3</ele>
        <time>2018-09-11T19:34:17Z</time>
      </trkpt>
      <trkpt lat="51.216852" lon="4.484911">
        <ele>3</ele>
        <time>2018-09-11T19:34:20Z</time>
      </trkpt>
      <trkpt lat="51.216848" lon="4.48476">
        <ele>3</ele>
        <time>2018-09-11T19:34:24Z</time>
      </trkpt>
      <trkpt lat="51.216889" lon="4.484604">
        <ele>3</ele>
        <time>2018-09-11T19:34:28Z</time>
      </trkpt>
      <trkpt lat="51.216922" lon="4.484451">
        <ele>3</ele>
        <time>2018-09-11T19:34:32Z</time>
      </trkpt>
      <trkpt lat="51.216893" lon="4.484313">
        <ele>3.1</ele>
        <time>2018-09-11T19:34:36Z</time>
      </trkpt>
      <trkpt lat="51.216895" lon="4.484181">
        <ele>3.2</ele>
        <time>2018-09-11T19:34:40Z</time>
      </trkpt>
      <trkpt lat="51.216903" lon="4.48402">
        <ele>3.3</ele>
        <time>2018-09-11T19:34:44Z</time>
      </trkpt>
      <trkpt lat="51.216925" lon="4.483888">
        <ele>3.5</ele>
        <time>2018-09-11T19:34:47Z</time>
      </trkpt>
      <trkpt lat="51.216923" lon="4.483753">
        <ele>3.6</ele>
        <time>2018-09-11T19:34:51Z</time>
      </trkpt>
      <trkpt lat="51.216905" lon="4.483592">
        <ele>3.8</ele>
        <time>2018-09-11T19:34:55Z</time>
      </trkpt>
      <trkpt lat="51.216909" lon="4.483442">
        <ele>4</ele>
        <time>2018-09-11T19:34:59Z</time>
      </trkpt>
      <trkpt lat="51.216919" lon="4.483304">
        <ele>4.2</ele>
        <time>2018-09-11T19:35:02Z</time>
      </trkpt>
      <trkpt lat="51.216921" lon="4.483166">
        <ele>4.3</ele>
        <time>2018-09-11T19:35:06Z</time>
      </trkpt>
      <trkpt lat="51.216947" lon="4.483037">
        <ele>4.4</ele>
        <time>2018-09-11T19:35:10Z</time>
      </trkpt>
      <trkpt lat="51.216966" lon="4.482904">
        <ele>4.5</ele>
        <time>2018-09-11T19:35:14Z</time>
      </trkpt>
      <trkpt lat="51.216976" lon="4.482751">
        <ele>4.4</ele>
        <time>2018-09-11T19:35:18Z</time>
      </trkpt>
      <trkpt lat="51.216973" lon="4.48261">
        <ele>4.3</ele>
        <time>2018-09-11T19:35:22Z</time>
      </trkpt>
      <trkpt lat="51.216971" lon="4.482475">
        <ele>4.2</ele>
        <time>2018-09-11T19:35:26Z</time>
      </trkpt>
      <trkpt lat="51.216968" lon="4.482328">
        <ele>4</ele>
        <time>2018-09-11T19:35:30Z</time>
      </trkpt>
      <trkpt lat="51.216873" lon="4.482294">
        <ele>3.7</ele>
        <time>2018-09-11T19:35:35Z</time>
      </trkpt>
      <trkpt lat="51.216774" lon="4.482319">
        <ele>3.5</ele>
        <time>2018-09-11T19:35:40Z</time>
      </trkpt>
      <trkpt lat="51.216682" lon="4.482354">
        <ele>3.4</ele>
        <time>2018-09-11T19:35:44Z</time>
      </trkpt>
      <trkpt lat="51.216582" lon="4.482372">
        <ele>3.2</ele>
        <time>2018-09-11T19:35:48Z</time>
      </trkpt>
      <trkpt lat="51.216484" lon="4.482407">
        <ele>3.2</ele>
        <time>2018-09-11T19:35:53Z</time>
      </trkpt>
      <trkpt lat="51.216396" lon="4.482398">
        <ele>3.3</ele>
        <time>2018-09-11T19:35:57Z</time>
      </trkpt>
      <trkpt lat="51.216295" lon="4.482434">
        <ele>3.5</ele>
        <time>2018-09-11T19:36:03Z</time>
      </trkpt>
      <trkpt lat="51.216194" lon="4.482422">
        <ele>3.8</ele>
        <time>2018-09-11T19:36:07Z</time>
      </trkpt>
      <trkpt lat="51.2161" lon="4.48241">
        <ele>4.2</ele>
        <time>2018-09-11T19:36:11Z</time>
      </trkpt>
      <trkpt lat="51.216006" lon="4.482401">
        <ele>4.5</ele>
        <time>2018-09-11T19:36:15Z</time>
      </trkpt>
      <trkpt lat="51.215919" lon="4.482385">
        <ele>4.9</ele>
        <time>2018-09-11T19:36:19Z</time>
      </trkpt>
      <trkpt lat="51.215837" lon="4.482388">
        <ele>5.4</ele>
        <time>2018-09-11T19:36:23Z</time>
      </trkpt>
      <trkpt lat="51.215744" lon="4.482372">
        <ele>5.7</ele>
        <time>2018-09-11T19:36:27Z</time>
      </trkpt>
      <trkpt lat="51.21566" lon="4.482332">
        <ele>6.1</ele>
        <time>2018-09-11T19:36:31Z</time>
      </trkpt>
      <trkpt lat="51.215578" lon="4.482337">
        <ele>6.4</ele>
        <time>2018-09-11T19:36:35Z</time>
      </trkpt>
      <trkpt lat="51.215522" lon="4.482464">
        <ele>6.5</ele>
        <time>2018-09-11T19:36:40Z</time>
      </trkpt>
      <trkpt lat="51.21553" lon="4.482597">
        <ele>6.5</ele>
        <time>2018-09-11T19:36:44Z</time>
      </trkpt>
      <trkpt lat="51.215542" lon="4.48276">
        <ele>6.5</ele>
        <time>2018-09-11T19:36:49Z</time>
      </trkpt>
      <trkpt lat="51.215529" lon="4.482926">
        <ele>6.3</ele>
        <time>2018-09-11T19:36:53Z</time>
      </trkpt>
      <trkpt lat="51.215529" lon="4.483069">
        <ele>6</ele>
        <time>2018-09-11T19:36:57Z</time>
      </trkpt>
      <trkpt lat="51.215516" lon="4.483204">
        <ele>5.7</ele>
        <time>2018-09-11T19:37:00Z</time>
      </trkpt>
      <trkpt lat="51.215509" lon="4.483336">
        <ele>5.5</ele>
        <time>2018-09-11T19:37:03Z</time>
      </trkpt>
      <trkpt lat="51.215524" lon="4.48348">
        <ele>5.2</ele>
        <time>2018-09-11T19:37:07Z</time>
      </trkpt>
      <trkpt lat="51.215526" lon="4.483627">
        <ele>4.9</ele>
        <time>2018-09-11T19:37:11Z</time>
      </trkpt>
      <trkpt lat="51.215537" lon="4.483762">
        <ele>4.6</ele>
        <time>2018-09-11T19:37:14Z</time>
      </trkpt>
      <trkpt lat="51.215527" lon="4.483897">
        <ele>4.5</ele>
        <time>2018-09-11T19:37:17Z</time>
      </trkpt>
      <trkpt lat="51.215544" lon="4.48405">
        <ele>4.3</ele>
        <time>2018-09-11T19:37:21Z</time>
      </trkpt>
      <trkpt lat="51.215547" lon="4.484218">
        <ele>4.2</ele>
        <time>2018-09-11T19:37:26Z</time>
      </trkpt>
      <trkpt lat="51.215559" lon="4.484376">
        <ele>4.1</ele>
        <time>2018-09-11T19:37:30Z</time>
      </trkpt>
      <trkpt lat="51.215568" lon="4.484519">
        <ele>4</ele>
        <time>2018-09-11T19:37:34Z</time>
      </trkpt>
      <trkpt lat="51.215564" lon="4.484662">
        <ele>4</ele>
        <time>2018-09-11T19:37:37Z</time>
      </trkpt>
      <trkpt lat="51.215546" lon="4.484793">
        <ele>4</ele>
        <time>2018-09-11T19:37:40Z</time>
      </trkpt>
      <trkpt lat="51.215528" lon="4.484949">
        <ele>4</ele>
        <time>2018-09-11T19:37:44Z</time>
      </trkpt>
      <trkpt lat="51.215522" lon="4.48511">
        <ele>4.1</ele>
        <time>2018-09-11T19:37:48Z</time>
      </trkpt>
      <trkpt lat="51.215461" lon="4.48524">
        <ele>4.2</ele>
        <time>2018-09-11T19:37:52Z</time>
      </trkpt>
      <trkpt lat="51.215369" lon="4.485283">
        <ele>4.4</ele>
        <time>2018-09-11T19:37:56Z</time>
      </trkpt>
      <trkpt lat="51.215282" lon="4.485263">
        <ele>4.5</ele>
        <time>2018-09-11T19:38:00Z</time>
      </trkpt>
      <trkpt lat="51.215218" lon="4.485167">
        <ele>4.7</ele>
        <time>2018-09-11T19:38:04Z</time>
      </trkpt>
      <trkpt lat="51.215135" lon="4.485104">
        <ele>4.9</ele>
        <time>2018-09-11T19:38:07Z</time>
      </trkpt>
      <trkpt lat="51.215041" lon="4.485116">
        <ele>5.1</ele>
        <time>2018-09-11T19:38:10Z</time>
      </trkpt>
      <trkpt lat="51.214944" lon="4.485149">
        <ele>5.3</ele>
        <time>2018-09-11T19:38:13Z</time>
      </trkpt>
      <trkpt lat="51.214853" lon="4.485147">
        <ele>5.5</ele>
        <time>2018-09-11T19:38:16Z</time>
      </trkpt>
      <trkpt lat="51.214759" lon="4.485149">
        <ele>5.6</ele>
        <time>2018-09-11T19:38:19Z</time>
      </trkpt>
      <trkpt lat="51.214668" lon="4.485122">
        <ele>5.9</ele>
        <time>2018-09-11T19:38:22Z</time>
      </trkpt>
      <trkpt lat="51.214611" lon="4.485026">
        <ele>6.1</ele>
        <time>2018-09-11T19:38:26Z</time>
      </trkpt>
      <trkpt lat="51.214529" lon="4.485081">
        <ele>6.2</ele>
        <time>2018-09-11T19:38:29Z</time>
      </trkpt>
      <trkpt lat="51.214516" lon="4.485241">
        <ele>6.2</ele>
        <time>2018-09-11T19:38:33Z</time>
      </trkpt>
      <trkpt lat="51.214535" lon="4.485376">
        <ele>6.1</ele>
        <time>2018-09-11T19:38:37Z</time>
      </trkpt>
      <trkpt lat="51.214572" lon="4.485508">
        <ele>6</ele>
        <time>2018-09-11T19:38:40Z</time>
      </trkpt>
      <trkpt lat="51.214631" lon="4.485656">
        <ele>5.9</ele>
        <time>2018-09-11T19:38:44Z</time>
      </trkpt>
      <trkpt lat="51.214689" lon="4.485768">
        <ele>5.8</ele>
        <time>2018-09-11T19:38:47Z</time>
      </trkpt>
      <trkpt lat="51.214751" lon="4.485892">
        <ele>5.7</ele>
        <time>2018-09-11T19:38:51Z</time>
      </trkpt>
      <trkpt lat="51.214814" lon="4.486007">
        <ele>5.6</ele>
        <time>2018-09-11T19:38:55Z</time>
      </trkpt>
      <trkpt lat="51.214849" lon="4.486155">
        <ele>5.6</ele>
        <time>2018-09-11T19:38:59Z</time>
      </trkpt>
      <trkpt lat="51.214895" lon="4.48627">
        <ele>5.5</ele>
        <time>2018-09-11T19:39:02Z</time>
      </trkpt>
      <trkpt lat="51.214953" lon="4.486391">
        <ele>5.4</ele>
        <time>2018-09-11T19:39:06Z</time>
      </trkpt>
      <trkpt lat="51.215024" lon="4.486453">
        <ele>5.1</ele>
        <time>2018-09-11T19:39:10Z</time>
      </trkpt>
      <trkpt lat="51.2151" lon="4.486566">
        <ele>4.8</ele>
        <time>2018-09-11T19:39:14Z</time>
      </trkpt>
      <trkpt lat="51.215192" lon="4.486632">
        <ele>4.6</ele>
        <time>2018-09-11T19:39:18Z</time>
      </trkpt>
      <trkpt lat="51.215294" lon="4.486697">
        <ele>4.5</ele>
        <time>2018-09-11T19:39:22Z</time>
      </trkpt>
      <trkpt lat="51.215375" lon="4.486756">
        <ele>4.4</ele>
        <time>2018-09-11T19:39:25Z</time>
      </trkpt>
      <trkpt lat="51.215476" lon="4.486797">
        <ele>4.3</ele>
        <time>2018-09-11T19:39:29Z</time>
      </trkpt>
      <trkpt lat="51.215564" lon="4.486865">
        <ele>4.4</ele>
        <time>2018-09-11T19:39:33Z</time>
      </trkpt>
      <trkpt lat="51.215627" lon="4.486973">
        <ele>4.5</ele>
        <time>2018-09-11T19:39:37Z</time>
      </trkpt>
      <trkpt lat="51.215574" lon="4.48686">
        <ele>4.4</ele>
        <time>2018-09-11T19:39:48Z</time>
      </trkpt>
      <trkpt lat="51.215484" lon="4.486857">
        <ele>4.3</ele>
        <time>2018-09-11T19:39:52Z</time>
      </trkpt>
      <trkpt lat="51.215402" lon="4.486814">
        <ele>4.3</ele>
        <time>2018-09-11T19:39:55Z</time>
      </trkpt>
      <trkpt lat="51.215307" lon="4.486743">
        <ele>4.5</ele>
        <time>2018-09-11T19:39:59Z</time>
      </trkpt>
      <trkpt lat="51.215211" lon="4.486675">
        <ele>4.6</ele>
        <time>2018-09-11T19:40:03Z</time>
      </trkpt>
      <trkpt lat="51.21513" lon="4.486655">
        <ele>4.8</ele>
        <time>2018-09-11T19:40:07Z</time>
      </trkpt>
      <trkpt lat="51.215035" lon="4.486591">
        <ele>5</ele>
        <time>2018-09-11T19:40:11Z</time>
      </trkpt>
      <trkpt lat="51.214966" lon="4.486499">
        <ele>5.2</ele>
        <time>2018-09-11T19:40:14Z</time>
      </trkpt>
      <trkpt lat="51.21489" lon="4.486396">
        <ele>5.5</ele>
        <time>2018-09-11T19:40:18Z</time>
      </trkpt>
      <trkpt lat="51.214843" lon="4.486277">
        <ele>5.5</ele>
        <time>2018-09-11T19:40:21Z</time>
      </trkpt>
      <trkpt lat="51.214788" lon="4.48618">
        <ele>5.6</ele>
        <time>2018-09-11T19:40:24Z</time>
      </trkpt>
      <trkpt lat="51.214729" lon="4.486048">
        <ele>5.7</ele>
        <time>2018-09-11T19:40:28Z</time>
      </trkpt>
      <trkpt lat="51.214686" lon="4.4859">
        <ele>5.8</ele>
        <time>2018-09-11T19:40:32Z</time>
      </trkpt>
      <trkpt lat="51.214639" lon="4.485749">
        <ele>5.9</ele>
        <time>2018-09-11T19:40:36Z</time>
      </trkpt>
      <trkpt lat="51.21459" lon="4.485634">
        <ele>6.1</ele>
        <time>2018-09-11T19:40:40Z</time>
      </trkpt>
      <trkpt lat="51.214544" lon="4.485526">
        <ele>6.3</ele>
        <time>2018-09-11T19:40:43Z</time>
      </trkpt>
      <trkpt lat="51.214511" lon="4.48536">
        <ele>6.4</ele>
        <time>2018-09-11T19:40:47Z</time>
      </trkpt>
      <trkpt lat="51.214471" lon="4.485221">
        <ele>6.5</ele>
        <time>2018-09-11T19:40:50Z</time>
      </trkpt>
      <trkpt lat="51.21441" lon="4.485111">
        <ele>6.5</ele>
        <time>2018-09-11T19:40:54Z</time>
      </trkpt>
      <trkpt lat="51.214358" lon="4.484965">
        <ele>6.4</ele>
        <time>2018-09-11T19:40:58Z</time>
      </trkpt>
      <trkpt lat="51.214313" lon="4.484839">
        <ele>6.3</ele>
        <time>2018-09-11T19:41:01Z</time>
      </trkpt>
      <trkpt lat="51.214252" lon="4.484708">
        <ele>6.2</ele>
        <time>2018-09-11T19:41:05Z</time>
      </trkpt>
      <trkpt lat="51.214201" lon="4.484596">
        <ele>6.3</ele>
        <time>2018-09-11T19:41:08Z</time>
      </trkpt>
    </trkseg>
  </trk>
</gpx>